UBBN

Details ICAO UBBN (NAJ)
Name NAKHCHIVAN
Region Azerbiajan
Timezone Asia/Baku (UTC+4.0)
Plans Departing 25
Arriving 20
Stats Elevation 2,863 ft / 873 m (AMSL)
Location 39.187764° 45.457953°
Runways 2
Magnetic Variation 5.931° E
Sunrise 2017-12-11 04:08:51 UTC / 2017-12-11 08:08:51 Local
Sunset 2017-12-11 13:36:48 UTC / 2017-12-11 17:36:48 Local
Advertisement - Login to hide

Runways

ID Width Length Bearing (true) Bearing (mag) Surface Threshold Offset Overrun Length
14L 138 ft / 42 m 10,775 ft / 3,284 m 137.42° 131.49° Asphalt 0 ft / 0 m 229 ft / 70 m
14R 148 ft / 45 m 10,801 ft / 3,292 m 137.44° 131.51° Concrete 0 ft / 0 m 229 ft / 70 m
32L 148 ft / 45 m 10,801 ft / 3,292 m 317.46° 311.53° Concrete 375 ft / 114 m 229 ft / 70 m
32R 138 ft / 42 m 10,775 ft / 3,284 m 317.43° 311.50° Asphalt 1,000 ft / 305 m 229 ft / 70 m

Map

Weather


0- 5 10 15 20 25 30 35+ Temperature / ° C

Clouds and Precipitation
Forecast for 2017-12-11 12:00 UTC. Updated 2 hours ago

Ground ~20,000 ft ~40,000 ft Winds

METAR

UBBN 111030Z VRB02KT 8000 FEW100 04/M02 Q1025 R14R/CLRD// NOSIG RMK MT OBSC QFE693

TAF

TAF UBBN 110500Z 1106/1206 25008KT 3000 BR FEW050 SCT100 TX06/1112Z TNM05/1203Z TEMPO 1106/1109 VRB04KT 0400 FZFG VV003 BECMG 1109/1111 6000 NSW SCT100

Frequencies

Recorded 127.50 MHz ATIS
Approach 118.20 MHz APP
Tower 118.20 MHz TWR
Warning: Do not use this data for real-world aviation or navigation. No guarantee of current accuracy is given.